Huvudsida
METAR-TAF:

METAR-TAF

Flygplatser :

Hammerfests flygplats

Hammerfests, Norge

latitud: 70-40N, longitud: 023-40E, höjd: 8 m

Aktuellt väderrapport

Denna rapport gjordes för 16 minuter sedan, klockan 19:20 UTC
Vind 7 kt från nordost
Temperatur 11°C
Fuktighet 71%
Tryck 1006 hPa
Sikt 10 km eller mer
Få moln på en höjd av 3700 ft
Brutna moln på en höjd av 4800 ft

METAR: ENHF 251920Z 05007KT 9999 FEW037 BKN048 11/06 Q1006 RMK WIND 1254FT 07003KT

Tid: 21:36 (19:36 UTC)

Väderprognos

Denna rapport gjordes för 2 timmar och 36 minuter sedan, klockan 17:00 UTC
Prognos gäller från 25 kl. 18 UTC till 26 kl. 03 UTC
Vind 5 kt från ost
Sikt 10 km eller mer
Få moln på en höjd av 2500 ft
Brutna moln på en höjd av 5000 ft

TAF: ENHF 251700Z 2518/2603 08005KT 9999 FEW025 BKN050

Aktuella väderrapporter och prognoser från 4000 flygplatser (METAR- och TAF-rapporter).

De tillgängliga stationerna syns som gula och röda prickar på kartan.

För musen över prickarna för att se namnen på stationerna.

Klicka sedan för att få väderrapporter och prognoser.

För att ändra kartan: Klicka på de gröna knapparna med ett svart kors på för att zooma in; den gröna knappen med ett streck på för att zooma ut; eller på de gröna pilarna för angränsande kartor.


METAR-TAF: